Strona główna
METAR-TAF:

METAR-TAF

Lotnisko :

Port lotniczy Lemnos

Lemnos, Grecja

Szerokość geograficzna: 39-55N, Długość geograficzna: 025-14E, wysokość: 5 m

Aktualna obserwacja pogody

Raport powstał 17 minut temu, godzina 09:50 UTC
Wiatr 7 kt od północ
Temperatura 18°C
Wilgotność 45%
Ciśnienie 1017 hPa
Widzialność 10 km lub więcej
Brak chmur poniżej 1500 m i brak chmur cumulonimbus

METAR: LGLM 100950Z 36007KT CAVOK 18/06 Q1017

czas: 13:07 (10:07 UTC)

Prognoza

Raport powstał 2 godziny i 7 minut temu, godzina 08:00 UTC
Prognoza ważna od 10 godzina 09 UTC do 10 godzina 18 UTC
Wiatr 8 kt od północno-północny zachód
Widzialność 10 km lub więcej
Mało chmury na wysokości 2500 ft

TAF: LGLM 100800Z 1009/1018 34008KT 9999 FEW025

Obserwacja i prognoza pogody dla ponad 4000 lotnisk (raport METAR i TAF).

Dostępne stacje oznaczono żółtymi i czerwonymi punktami na mapie.

Najedź kursorem aby zobaczyć nazwę stacji.

Kliknij aby zobaczyć obserwacje i prognozy pogody.

Aby zmienić mapę: kliknij na zielony przycisk z czarnym krzyżykiem, aby powiększyć; na zielony przycisk z myślnikiem, aby pomniejszyć; na zielone strzałki, aby przejść do map sąsiednich.


METAR-TAF: